Terminal Aerodrome Forecast
Issued by NWS

Home | Current Version | Previous Version | Text Only | Print | Product List | Glossary On
Versions: 1 2 3 4 5 6 7 8 9 10 11 12 13
000
FTUS42 KTBW 231936 AAA
TAFPGD
TAF AMD
KPGD 231936Z 2320/2418 VRB05KT P6SM VCTS BKN045CB BKN100
      TEMPO 2320/2322 VRB15G25KT 2SM +TSRA BKN025CB
     FM232300 08005KT P6SM VCSH SCT050 BKN100 BKN250
     FM240300 VRB03KT P6SM SCT040 SCT100 OVC250=

USA.gov is the U.S. government's official web portal to all federal, state and local government web resources and services.